sensor_id;sensor_type;location;lat;lon;timestamp;P1;durP1;ratioP1;P2;durP2;ratioP2
22363;SDS011;11349;53.412;-1.328;2023-12-20T00:01:48;16.73;;;3.30;;
22363;SDS011;11349;53.412;-1.328;2023-12-20T00:04:14;14.50;;;2.63;;
22363;SDS011;11349;53.412;-1.328;2023-12-20T00:06:40;11.70;;;2.95;;
22363;SDS011;11349;53.412;-1.328;2023-12-20T00:09:06;16.42;;;2.70;;
22363;SDS011;11349;53.412;-1.328;2023-12-20T00:11:32;16.83;;;3.25;;
22363;SDS011;11349;53.412;-1.328;2023-12-20T00:13:57;12.43;;;2.85;;
22363;SDS011;11349;53.412;-1.328;2023-12-20T00:16:23;14.88;;;3.10;;
22363;SDS011;11349;53.412;-1.328;2023-12-20T00:18:49;15.70;;;2.53;;
22363;SDS011;11349;53.412;-1.328;2023-12-20T00:21:14;13.77;;;2.67;;
22363;SDS011;11349;53.412;-1.328;2023-12-20T00:23:40;13.75;;;3.63;;
22363;SDS011;11349;53.412;-1.328;2023-12-20T00:26:06;12.23;;;2.83;;
22363;SDS011;11349;53.412;-1.328;2023-12-20T00:28:31;16.00;;;2.95;;
22363;SDS011;11349;53.412;-1.328;2023-12-20T00:30:57;13.32;;;2.28;;
22363;SDS011;11349;53.412;-1.328;2023-12-20T00:33:23;14.88;;;2.53;;
22363;SDS011;11349;53.412;-1.328;2023-12-20T00:35:50;13.25;;;3.58;;
22363;SDS011;11349;53.412;-1.328;2023-12-20T00:38:15;21.13;;;3.95;;
22363;SDS011;11349;53.412;-1.328;2023-12-20T00:40:41;11.00;;;2.67;;
22363;SDS011;11349;53.412;-1.328;2023-12-20T00:43:07;13.50;;;2.95;;
22363;SDS011;11349;53.412;-1.328;2023-12-20T00:45:32;13.25;;;2.50;;
22363;SDS011;11349;53.412;-1.328;2023-12-20T00:47:58;13.75;;;2.30;;
22363;SDS011;11349;53.412;-1.328;2023-12-20T00:50:24;13.80;;;2.45;;
22363;SDS011;11349;53.412;-1.328;2023-12-20T00:52:50;16.23;;;3.22;;
22363;SDS011;11349;53.412;-1.328;2023-12-20T00:55:15;13.32;;;2.20;;
22363;SDS011;11349;53.412;-1.328;2023-12-20T00:57:41;11.20;;;2.25;;
22363;SDS011;11349;53.412;-1.328;2023-12-20T01:00:07;20.25;;;3.03;;
22363;SDS011;11349;53.412;-1.328;2023-12-20T01:02:36;15.85;;;2.95;;
22363;SDS011;11349;53.412;-1.328;2023-12-20T01:05:01;11.23;;;2.45;;
22363;SDS011;11349;53.412;-1.328;2023-12-20T01:07:27;13.82;;;2.25;;
22363;SDS011;11349;53.412;-1.328;2023-12-20T01:09:53;11.68;;;2.63;;
22363;SDS011;11349;53.412;-1.328;2023-12-20T01:12:19;14.43;;;3.03;;
22363;SDS011;11349;53.412;-1.328;2023-12-20T01:14:45;13.18;;;2.65;;
22363;SDS011;11349;53.412;-1.328;2023-12-20T01:17:11;15.90;;;2.78;;
22363;SDS011;11349;53.412;-1.328;2023-12-20T01:19:37;13.45;;;2.90;;
22363;SDS011;11349;53.412;-1.328;2023-12-20T01:22:02;13.23;;;2.88;;
22363;SDS011;11349;53.412;-1.328;2023-12-20T01:24:28;14.05;;;2.72;;
22363;SDS011;11349;53.412;-1.328;2023-12-20T01:26:54;14.00;;;2.67;;
22363;SDS011;11349;53.412;-1.328;2023-12-20T01:29:20;18.35;;;3.17;;
22363;SDS011;11349;53.412;-1.328;2023-12-20T01:31:45;16.63;;;2.58;;
22363;SDS011;11349;53.412;-1.328;2023-12-20T01:34:12;12.32;;;2.42;;
22363;SDS011;11349;53.412;-1.328;2023-12-20T01:36:37;18.17;;;2.88;;
22363;SDS011;11349;53.412;-1.328;2023-12-20T01:39:03;20.65;;;3.20;;
22363;SDS011;11349;53.412;-1.328;2023-12-20T01:41:29;14.43;;;2.88;;
22363;SDS011;11349;53.412;-1.328;2023-12-20T01:43:55;12.13;;;2.40;;
22363;SDS011;11349;53.412;-1.328;2023-12-20T01:46:20;18.23;;;3.13;;
22363;SDS011;11349;53.412;-1.328;2023-12-20T01:48:47;11.05;;;2.15;;
22363;SDS011;11349;53.412;-1.328;2023-12-20T01:51:13;15.15;;;3.00;;
22363;SDS011;11349;53.412;-1.328;2023-12-20T01:53:39;13.57;;;2.75;;
22363;SDS011;11349;53.412;-1.328;2023-12-20T01:56:06;11.05;;;2.75;;
22363;SDS011;11349;53.412;-1.328;2023-12-20T01:58:33;13.00;;;2.67;;
22363;SDS011;11349;53.412;-1.328;2023-12-20T02:00:59;15.98;;;2.92;;
22363;SDS011;11349;53.412;-1.328;2023-12-20T02:03:24;10.95;;;2.33;;
22363;SDS011;11349;53.412;-1.328;2023-12-20T02:05:51;11.38;;;2.60;;
22363;SDS011;11349;53.412;-1.328;2023-12-20T02:08:17;13.82;;;2.80;;
22363;SDS011;11349;53.412;-1.328;2023-12-20T02:10:43;13.30;;;3.03;;
22363;SDS011;11349;53.412;-1.328;2023-12-20T02:13:09;14.48;;;3.15;;
22363;SDS011;11349;53.412;-1.328;2023-12-20T02:15:35;18.40;;;3.42;;
22363;SDS011;11349;53.412;-1.328;2023-12-20T02:18:02;11.82;;;2.60;;
22363;SDS011;11349;53.412;-1.328;2023-12-20T02:20:28;11.93;;;2.70;;
22363;SDS011;11349;53.412;-1.328;2023-12-20T02:22:54;14.57;;;3.47;;
22363;SDS011;11349;53.412;-1.328;2023-12-20T02:25:20;13.60;;;2.60;;
22363;SDS011;11349;53.412;-1.328;2023-12-20T02:27:45;13.95;;;3.03;;
22363;SDS011;11349;53.412;-1.328;2023-12-20T02:30:11;20.90;;;4.28;;
22363;SDS011;11349;53.412;-1.328;2023-12-20T02:32:37;16.00;;;4.28;;
22363;SDS011;11349;53.412;-1.328;2023-12-20T02:35:03;15.48;;;2.88;;
22363;SDS011;11349;53.412;-1.328;2023-12-20T02:37:29;16.35;;;2.65;;
22363;SDS011;11349;53.412;-1.328;2023-12-20T02:39:55;17.80;;;3.45;;
22363;SDS011;11349;53.412;-1.328;2023-12-20T02:42:20;18.10;;;2.80;;
22363;SDS011;11349;53.412;-1.328;2023-12-20T02:44:46;18.02;;;3.10;;
22363;SDS011;11349;53.412;-1.328;2023-12-20T02:47:12;19.75;;;3.20;;
22363;SDS011;11349;53.412;-1.328;2023-12-20T02:49:37;15.73;;;2.55;;
22363;SDS011;11349;53.412;-1.328;2023-12-20T02:52:03;12.02;;;2.45;;
22363;SDS011;11349;53.412;-1.328;2023-12-20T02:54:29;13.50;;;3.10;;
22363;SDS011;11349;53.412;-1.328;2023-12-20T02:56:55;16.02;;;3.53;;
22363;SDS011;11349;53.412;-1.328;2023-12-20T02:59:20;18.20;;;3.28;;
22363;SDS011;11349;53.412;-1.328;2023-12-20T03:01:46;16.73;;;2.92;;
22363;SDS011;11349;53.412;-1.328;2023-12-20T03:04:12;17.58;;;2.83;;
22363;SDS011;11349;53.412;-1.328;2023-12-20T03:06:38;14.52;;;3.00;;
22363;SDS011;11349;53.412;-1.328;2023-12-20T03:09:03;9.13;;;3.17;;
22363;SDS011;11349;53.412;-1.328;2023-12-20T03:11:29;19.70;;;3.13;;
22363;SDS011;11349;53.412;-1.328;2023-12-20T03:13:55;13.27;;;3.25;;
22363;SDS011;11349;53.412;-1.328;2023-12-20T03:16:21;10.40;;;2.22;;
22363;SDS011;11349;53.412;-1.328;2023-12-20T03:18:47;16.45;;;3.22;;
22363;SDS011;11349;53.412;-1.328;2023-12-20T03:21:13;12.10;;;2.58;;
22363;SDS011;11349;53.412;-1.328;2023-12-20T03:23:39;12.52;;;2.80;;
22363;SDS011;11349;53.412;-1.328;2023-12-20T03:26:08;15.63;;;4.60;;
22363;SDS011;11349;53.412;-1.328;2023-12-20T03:28:34;7.70;;;2.22;;
22363;SDS011;11349;53.412;-1.328;2023-12-20T03:31:01;10.95;;;2.55;;
22363;SDS011;11349;53.412;-1.328;2023-12-20T03:33:27;10.38;;;2.75;;
22363;SDS011;11349;53.412;-1.328;2023-12-20T03:35:53;13.18;;;4.75;;
22363;SDS011;11349;53.412;-1.328;2023-12-20T03:38:20;8.60;;;2.38;;
22363;SDS011;11349;53.412;-1.328;2023-12-20T03:40:46;7.57;;;2.03;;
22363;SDS011;11349;53.412;-1.328;2023-12-20T03:43:11;14.93;;;2.38;;
22363;SDS011;11349;53.412;-1.328;2023-12-20T03:45:37;11.93;;;2.22;;
22363;SDS011;11349;53.412;-1.328;2023-12-20T03:48:03;11.10;;;2.10;;
22363;SDS011;11349;53.412;-1.328;2023-12-20T03:50:29;12.05;;;2.65;;
22363;SDS011;11349;53.412;-1.328;2023-12-20T03:52:55;8.80;;;1.67;;
22363;SDS011;11349;53.412;-1.328;2023-12-20T03:55:21;11.25;;;2.10;;
22363;SDS011;11349;53.412;-1.328;2023-12-20T03:57:46;9.95;;;2.08;;
22363;SDS011;11349;53.412;-1.328;2023-12-20T04:00:12;10.52;;;3.05;;
22363;SDS011;11349;53.412;-1.328;2023-12-20T04:02:38;11.82;;;2.17;;
22363;SDS011;11349;53.412;-1.328;2023-12-20T04:05:08;13.70;;;2.30;;
22363;SDS011;11349;53.412;-1.328;2023-12-20T04:07:37;15.43;;;3.58;;
22363;SDS011;11349;53.412;-1.328;2023-12-20T04:10:03;12.82;;;2.33;;
22363;SDS011;11349;53.412;-1.328;2023-12-20T04:12:30;15.32;;;2.65;;
22363;SDS011;11349;53.412;-1.328;2023-12-20T04:14:56;11.73;;;1.83;;
22363;SDS011;11349;53.412;-1.328;2023-12-20T04:17:22;10.77;;;2.03;;
22363;SDS011;11349;53.412;-1.328;2023-12-20T04:19:48;7.80;;;2.08;;
22363;SDS011;11349;53.412;-1.328;2023-12-20T04:22:14;10.75;;;1.85;;
22363;SDS011;11349;53.412;-1.328;2023-12-20T04:24:40;10.82;;;1.50;;
22363;SDS011;11349;53.412;-1.328;2023-12-20T04:27:09;10.10;;;1.88;;
22363;SDS011;11349;53.412;-1.328;2023-12-20T04:29:35;8.82;;;1.90;;
22363;SDS011;11349;53.412;-1.328;2023-12-20T04:32:01;12.00;;;2.58;;
22363;SDS011;11349;53.412;-1.328;2023-12-20T04:34:27;20.30;;;2.35;;
22363;SDS011;11349;53.412;-1.328;2023-12-20T04:36:52;14.32;;;2.80;;
22363;SDS011;11349;53.412;-1.328;2023-12-20T04:39:18;12.60;;;1.88;;
22363;SDS011;11349;53.412;-1.328;2023-12-20T04:41:44;11.90;;;1.80;;
22363;SDS011;11349;53.412;-1.328;2023-12-20T04:44:10;13.82;;;2.13;;
22363;SDS011;11349;53.412;-1.328;2023-12-20T04:46:36;11.68;;;1.80;;
22363;SDS011;11349;53.412;-1.328;2023-12-20T04:49:01;10.07;;;2.10;;
22363;SDS011;11349;53.412;-1.328;2023-12-20T04:51:27;11.30;;;2.05;;
22363;SDS011;11349;53.412;-1.328;2023-12-20T04:53:53;16.88;;;2.92;;
22363;SDS011;11349;53.412;-1.328;2023-12-20T04:56:18;9.13;;;1.85;;
22363;SDS011;11349;53.412;-1.328;2023-12-20T04:58:44;9.10;;;1.92;;
22363;SDS011;11349;53.412;-1.328;2023-12-20T05:01:10;11.07;;;2.63;;
22363;SDS011;11349;53.412;-1.328;2023-12-20T05:03:36;11.23;;;2.92;;
22363;SDS011;11349;53.412;-1.328;2023-12-20T05:06:02;9.93;;;1.75;;
22363;SDS011;11349;53.412;-1.328;2023-12-20T05:08:28;10.98;;;1.60;;
22363;SDS011;11349;53.412;-1.328;2023-12-20T05:10:54;9.32;;;2.28;;
22363;SDS011;11349;53.412;-1.328;2023-12-20T05:13:20;8.30;;;3.63;;
22363;SDS011;11349;53.412;-1.328;2023-12-20T05:15:46;11.05;;;1.38;;
22363;SDS011;11349;53.412;-1.328;2023-12-20T05:18:12;9.00;;;2.25;;
22363;SDS011;11349;53.412;-1.328;2023-12-20T05:20:38;6.43;;;1.55;;
22363;SDS011;11349;53.412;-1.328;2023-12-20T05:23:04;6.53;;;1.33;;
22363;SDS011;11349;53.412;-1.328;2023-12-20T05:25:30;6.90;;;1.58;;
22363;SDS011;11349;53.412;-1.328;2023-12-20T05:27:55;4.45;;;1.38;;
22363;SDS011;11349;53.412;-1.328;2023-12-20T05:30:21;6.05;;;1.08;;
22363;SDS011;11349;53.412;-1.328;2023-12-20T05:32:47;6.97;;;1.40;;
22363;SDS011;11349;53.412;-1.328;2023-12-20T05:35:13;5.05;;;1.08;;
22363;SDS011;11349;53.412;-1.328;2023-12-20T05:37:38;7.32;;;1.52;;
22363;SDS011;11349;53.412;-1.328;2023-12-20T05:40:04;8.52;;;2.20;;
22363;SDS011;11349;53.412;-1.328;2023-12-20T05:42:31;5.90;;;1.70;;
22363;SDS011;11349;53.412;-1.328;2023-12-20T05:44:56;9.23;;;1.80;;
22363;SDS011;11349;53.412;-1.328;2023-12-20T05:47:22;7.18;;;1.90;;
22363;SDS011;11349;53.412;-1.328;2023-12-20T05:49:48;9.52;;;1.75;;
22363;SDS011;11349;53.412;-1.328;2023-12-20T05:52:15;11.45;;;2.20;;
22363;SDS011;11349;53.412;-1.328;2023-12-20T05:54:40;11.50;;;2.00;;
22363;SDS011;11349;53.412;-1.328;2023-12-20T05:57:06;10.63;;;2.15;;
22363;SDS011;11349;53.412;-1.328;2023-12-20T05:59:32;18.30;;;2.47;;
22363;SDS011;11349;53.412;-1.328;2023-12-20T06:01:58;8.10;;;1.92;;
22363;SDS011;11349;53.412;-1.328;2023-12-20T06:04:23;11.70;;;2.13;;
22363;SDS011;11349;53.412;-1.328;2023-12-20T06:06:49;10.07;;;2.25;;
22363;SDS011;11349;53.412;-1.328;2023-12-20T06:09:15;14.35;;;2.30;;
22363;SDS011;11349;53.412;-1.328;2023-12-20T06:11:40;16.80;;;3.50;;
22363;SDS011;11349;53.412;-1.328;2023-12-20T06:14:07;11.27;;;2.13;;
22363;SDS011;11349;53.412;-1.328;2023-12-20T06:16:33;12.85;;;1.73;;
22363;SDS011;11349;53.412;-1.328;2023-12-20T06:18:59;9.40;;;2.13;;
22363;SDS011;11349;53.412;-1.328;2023-12-20T06:21:24;8.63;;;1.92;;
22363;SDS011;11349;53.412;-1.328;2023-12-20T06:23:50;13.93;;;2.25;;
22363;SDS011;11349;53.412;-1.328;2023-12-20T06:26:16;13.60;;;2.50;;
22363;SDS011;11349;53.412;-1.328;2023-12-20T06:28:41;13.38;;;2.47;;
22363;SDS011;11349;53.412;-1.328;2023-12-20T06:31:07;12.80;;;2.63;;
22363;SDS011;11349;53.412;-1.328;2023-12-20T06:33:33;12.43;;;2.17;;
22363;SDS011;11349;53.412;-1.328;2023-12-20T06:35:59;10.75;;;2.13;;
22363;SDS011;11349;53.412;-1.328;2023-12-20T06:38:26;12.10;;;2.05;;
22363;SDS011;11349;53.412;-1.328;2023-12-20T06:40:51;11.52;;;3.15;;
22363;SDS011;11349;53.412;-1.328;2023-12-20T06:43:17;10.90;;;2.25;;
22363;SDS011;11349;53.412;-1.328;2023-12-20T06:45:43;10.95;;;2.15;;
22363;SDS011;11349;53.412;-1.328;2023-12-20T06:48:08;11.55;;;2.15;;
22363;SDS011;11349;53.412;-1.328;2023-12-20T06:50:36;12.23;;;2.67;;
22363;SDS011;11349;53.412;-1.328;2023-12-20T06:53:05;11.88;;;2.00;;
22363;SDS011;11349;53.412;-1.328;2023-12-20T06:55:32;12.07;;;2.88;;
22363;SDS011;11349;53.412;-1.328;2023-12-20T06:58:02;9.38;;;1.80;;
22363;SDS011;11349;53.412;-1.328;2023-12-20T07:00:29;9.35;;;1.77;;
22363;SDS011;11349;53.412;-1.328;2023-12-20T07:02:55;11.25;;;1.88;;
22363;SDS011;11349;53.412;-1.328;2023-12-20T07:05:21;9.55;;;1.67;;
22363;SDS011;11349;53.412;-1.328;2023-12-20T07:07:47;8.73;;;1.73;;
22363;SDS011;11349;53.412;-1.328;2023-12-20T07:10:16;9.77;;;2.05;;
22363;SDS011;11349;53.412;-1.328;2023-12-20T07:12:41;11.90;;;2.10;;
22363;SDS011;11349;53.412;-1.328;2023-12-20T07:15:07;11.45;;;1.63;;
22363;SDS011;11349;53.412;-1.328;2023-12-20T07:17:33;15.27;;;2.53;;
22363;SDS011;11349;53.412;-1.328;2023-12-20T07:19:59;9.75;;;2.30;;
22363;SDS011;11349;53.412;-1.328;2023-12-20T07:22:30;13.32;;;2.20;;
22363;SDS011;11349;53.412;-1.328;2023-12-20T07:24:58;10.27;;;1.90;;
22363;SDS011;11349;53.412;-1.328;2023-12-20T07:27:25;9.88;;;1.73;;
22363;SDS011;11349;53.412;-1.328;2023-12-20T07:29:51;9.73;;;1.80;;
22363;SDS011;11349;53.412;-1.328;2023-12-20T07:32:17;10.15;;;1.83;;
22363;SDS011;11349;53.412;-1.328;2023-12-20T07:34:43;10.35;;;2.13;;
22363;SDS011;11349;53.412;-1.328;2023-12-20T07:37:09;13.18;;;1.65;;
22363;SDS011;11349;53.412;-1.328;2023-12-20T07:39:41;12.43;;;2.30;;
22363;SDS011;11349;53.412;-1.328;2023-12-20T07:42:07;9.77;;;1.77;;
22363;SDS011;11349;53.412;-1.328;2023-12-20T07:44:33;9.52;;;2.22;;
22363;SDS011;11349;53.412;-1.328;2023-12-20T07:47:01;6.85;;;1.80;;
22363;SDS011;11349;53.412;-1.328;2023-12-20T07:49:27;12.90;;;2.63;;
22363;SDS011;11349;53.412;-1.328;2023-12-20T07:51:52;8.68;;;1.85;;
22363;SDS011;11349;53.412;-1.328;2023-12-20T07:54:18;11.90;;;1.65;;
22363;SDS011;11349;53.412;-1.328;2023-12-20T07:56:45;10.93;;;2.25;;
22363;SDS011;11349;53.412;-1.328;2023-12-20T07:59:11;7.25;;;1.73;;
22363;SDS011;11349;53.412;-1.328;2023-12-20T08:01:37;8.73;;;2.20;;
22363;SDS011;11349;53.412;-1.328;2023-12-20T08:04:03;10.07;;;1.58;;
22363;SDS011;11349;53.412;-1.328;2023-12-20T08:06:28;13.98;;;3.50;;
22363;SDS011;11349;53.412;-1.328;2023-12-20T08:08:54;7.47;;;2.10;;
22363;SDS011;11349;53.412;-1.328;2023-12-20T08:11:20;10.13;;;1.65;;
22363;SDS011;11349;53.412;-1.328;2023-12-20T08:13:45;10.73;;;2.13;;
22363;SDS011;11349;53.412;-1.328;2023-12-20T08:16:11;7.72;;;1.90;;
22363;SDS011;11349;53.412;-1.328;2023-12-20T08:18:38;11.23;;;2.08;;
22363;SDS011;11349;53.412;-1.328;2023-12-20T08:21:04;10.93;;;2.10;;
22363;SDS011;11349;53.412;-1.328;2023-12-20T08:23:32;20.65;;;2.95;;
22363;SDS011;11349;53.412;-1.328;2023-12-20T08:26:03;10.98;;;1.98;;
22363;SDS011;11349;53.412;-1.328;2023-12-20T08:28:32;12.50;;;2.20;;
22363;SDS011;11349;53.412;-1.328;2023-12-20T08:30:59;13.20;;;1.90;;
22363;SDS011;11349;53.412;-1.328;2023-12-20T08:33:24;11.15;;;1.92;;
22363;SDS011;11349;53.412;-1.328;2023-12-20T08:35:50;11.70;;;1.58;;
22363;SDS011;11349;53.412;-1.328;2023-12-20T08:38:16;9.65;;;1.90;;
22363;SDS011;11349;53.412;-1.328;2023-12-20T08:40:43;11.32;;;1.70;;
22363;SDS011;11349;53.412;-1.328;2023-12-20T08:43:09;10.32;;;1.90;;
22363;SDS011;11349;53.412;-1.328;2023-12-20T08:45:34;11.40;;;1.65;;
22363;SDS011;11349;53.412;-1.328;2023-12-20T08:48:00;8.32;;;1.88;;
22363;SDS011;11349;53.412;-1.328;2023-12-20T08:50:26;9.70;;;1.52;;
22363;SDS011;11349;53.412;-1.328;2023-12-20T08:52:52;5.47;;;1.45;;
22363;SDS011;11349;53.412;-1.328;2023-12-20T08:55:18;8.10;;;1.80;;
22363;SDS011;11349;53.412;-1.328;2023-12-20T08:57:44;8.95;;;1.88;;
22363;SDS011;11349;53.412;-1.328;2023-12-20T09:00:10;10.40;;;2.28;;
22363;SDS011;11349;53.412;-1.328;2023-12-20T09:02:36;8.93;;;2.17;;
22363;SDS011;11349;53.412;-1.328;2023-12-20T09:05:02;8.25;;;1.50;;
22363;SDS011;11349;53.412;-1.328;2023-12-20T09:07:28;7.65;;;1.77;;
22363;SDS011;11349;53.412;-1.328;2023-12-20T09:09:57;10.52;;;1.80;;
22363;SDS011;11349;53.412;-1.328;2023-12-20T09:12:23;11.10;;;1.50;;
22363;SDS011;11349;53.412;-1.328;2023-12-20T09:14:49;11.55;;;1.60;;
22363;SDS011;11349;53.412;-1.328;2023-12-20T09:17:16;5.88;;;1.58;;
22363;SDS011;11349;53.412;-1.328;2023-12-20T09:19:42;7.53;;;1.35;;
22363;SDS011;11349;53.412;-1.328;2023-12-20T09:22:12;9.93;;;1.52;;
22363;SDS011;11349;53.412;-1.328;2023-12-20T09:24:38;7.30;;;1.60;;
22363;SDS011;11349;53.412;-1.328;2023-12-20T09:27:05;6.97;;;1.45;;
22363;SDS011;11349;53.412;-1.328;2023-12-20T09:29:30;7.75;;;1.60;;
22363;SDS011;11349;53.412;-1.328;2023-12-20T09:31:56;8.60;;;1.27;;
22363;SDS011;11349;53.412;-1.328;2023-12-20T09:34:22;9.95;;;1.65;;
22363;SDS011;11349;53.412;-1.328;2023-12-20T09:36:49;11.10;;;1.85;;
22363;SDS011;11349;53.412;-1.328;2023-12-20T09:39:15;9.30;;;1.60;;
22363;SDS011;11349;53.412;-1.328;2023-12-20T09:41:46;7.35;;;1.50;;
22363;SDS011;11349;53.412;-1.328;2023-12-20T09:44:28;7.60;;;2.08;;
22363;SDS011;11349;53.412;-1.328;2023-12-20T09:46:54;9.57;;;2.10;;
22363;SDS011;11349;53.412;-1.328;2023-12-20T09:49:21;7.38;;;1.45;;
22363;SDS011;11349;53.412;-1.328;2023-12-20T09:51:47;9.25;;;1.50;;
22363;SDS011;11349;53.412;-1.328;2023-12-20T09:54:15;7.97;;;1.60;;
22363;SDS011;11349;53.412;-1.328;2023-12-20T09:56:44;5.15;;;1.33;;
22363;SDS011;11349;53.412;-1.328;2023-12-20T09:59:10;9.00;;;1.05;;
22363;SDS011;11349;53.412;-1.328;2023-12-20T10:01:36;4.78;;;1.13;;
22363;SDS011;11349;53.412;-1.328;2023-12-20T10:04:05;8.38;;;1.77;;
22363;SDS011;11349;53.412;-1.328;2023-12-20T10:06:34;6.18;;;1.48;;
22363;SDS011;11349;53.412;-1.328;2023-12-20T10:09:07;6.28;;;1.20;;
22363;SDS011;11349;53.412;-1.328;2023-12-20T10:11:34;5.63;;;0.90;;
22363;SDS011;11349;53.412;-1.328;2023-12-20T10:14:02;4.78;;;1.00;;
22363;SDS011;11349;53.412;-1.328;2023-12-20T10:16:29;8.82;;;1.35;;
22363;SDS011;11349;53.412;-1.328;2023-12-20T10:18:55;8.20;;;1.33;;
22363;SDS011;11349;53.412;-1.328;2023-12-20T10:21:25;4.32;;;1.20;;
22363;SDS011;11349;53.412;-1.328;2023-12-20T10:23:54;6.85;;;1.70;;
22363;SDS011;11349;53.412;-1.328;2023-12-20T10:26:24;7.47;;;1.40;;
22363;SDS011;11349;53.412;-1.328;2023-12-20T10:28:51;9.50;;;3.25;;
22363;SDS011;11349;53.412;-1.328;2023-12-20T10:31:28;10.02;;;2.10;;
22363;SDS011;11349;53.412;-1.328;2023-12-20T10:33:57;6.07;;;1.67;;
22363;SDS011;11349;53.412;-1.328;2023-12-20T10:36:25;4.25;;;1.17;;
22363;SDS011;11349;53.412;-1.328;2023-12-20T10:38:52;9.27;;;1.40;;
22363;SDS011;11349;53.412;-1.328;2023-12-20T10:41:20;4.68;;;1.13;;
22363;SDS011;11349;53.412;-1.328;2023-12-20T10:43:57;3.85;;;1.30;;
22363;SDS011;11349;53.412;-1.328;2023-12-20T10:46:26;6.40;;;1.00;;
22363;SDS011;11349;53.412;-1.328;2023-12-20T10:48:53;2.67;;;0.85;;
22363;SDS011;11349;53.412;-1.328;2023-12-20T10:51:20;3.20;;;1.70;;
22363;SDS011;11349;53.412;-1.328;2023-12-20T10:53:47;3.03;;;0.93;;
22363;SDS011;11349;53.412;-1.328;2023-12-20T10:56:17;2.83;;;0.85;;
22363;SDS011;11349;53.412;-1.328;2023-12-20T10:58:48;0.98;;;0.50;;
22363;SDS011;11349;53.412;-1.328;2023-12-20T11:01:15;3.05;;;0.60;;
22363;SDS011;11349;53.412;-1.328;2023-12-20T11:03:44;2.20;;;0.40;;
22363;SDS011;11349;53.412;-1.328;2023-12-20T11:09:10;1.98;;;0.60;;
22363;SDS011;11349;53.412;-1.328;2023-12-20T11:14:15;2.03;;;0.40;;
22363;SDS011;11349;53.412;-1.328;2023-12-20T11:16:45;1.67;;;0.50;;
22363;SDS011;11349;53.412;-1.328;2023-12-20T11:19:11;0.95;;;0.55;;
22363;SDS011;11349;53.412;-1.328;2023-12-20T11:21:39;1.48;;;0.30;;
22363;SDS011;11349;53.412;-1.328;2023-12-20T11:24:05;2.42;;;0.65;;
22363;SDS011;11349;53.412;-1.328;2023-12-20T11:26:31;2.70;;;0.43;;
22363;SDS011;11349;53.412;-1.328;2023-12-20T11:29:29;6.10;;;0.70;;
22363;SDS011;11349;53.412;-1.328;2023-12-20T11:31:54;3.13;;;0.45;;
22363;SDS011;11349;53.412;-1.328;2023-12-20T11:34:20;2.70;;;0.50;;
22363;SDS011;11349;53.412;-1.328;2023-12-20T11:36:46;3.22;;;0.95;;
22363;SDS011;11349;53.412;-1.328;2023-12-20T11:39:11;4.57;;;1.10;;
22363;SDS011;11349;53.412;-1.328;2023-12-20T11:41:44;4.20;;;0.77;;
22363;SDS011;11349;53.412;-1.328;2023-12-20T11:44:10;2.30;;;0.68;;
22363;SDS011;11349;53.412;-1.328;2023-12-20T11:46:36;5.25;;;1.20;;
22363;SDS011;11349;53.412;-1.328;2023-12-20T11:49:02;4.43;;;1.02;;
22363;SDS011;11349;53.412;-1.328;2023-12-20T11:51:28;4.85;;;0.70;;
22363;SDS011;11349;53.412;-1.328;2023-12-20T11:53:53;4.07;;;1.00;;
22363;SDS011;11349;53.412;-1.328;2023-12-20T11:56:19;4.22;;;0.90;;
22363;SDS011;11349;53.412;-1.328;2023-12-20T11:58:45;2.85;;;0.75;;
22363;SDS011;11349;53.412;-1.328;2023-12-20T12:01:11;5.90;;;1.83;;
22363;SDS011;11349;53.412;-1.328;2023-12-20T12:03:37;5.88;;;1.02;;
22363;SDS011;11349;53.412;-1.328;2023-12-20T12:06:02;3.83;;;1.08;;
22363;SDS011;11349;53.412;-1.328;2023-12-20T12:08:29;6.53;;;1.55;;
22363;SDS011;11349;53.412;-1.328;2023-12-20T12:10:55;8.45;;;1.50;;
22363;SDS011;11349;53.412;-1.328;2023-12-20T12:13:21;8.05;;;1.75;;
22363;SDS011;11349;53.412;-1.328;2023-12-20T12:15:47;9.20;;;1.63;;
22363;SDS011;11349;53.412;-1.328;2023-12-20T12:18:15;7.55;;;1.27;;
22363;SDS011;11349;53.412;-1.328;2023-12-20T12:20:42;6.32;;;1.65;;
22363;SDS011;11349;53.412;-1.328;2023-12-20T12:23:07;10.23;;;1.92;;
22363;SDS011;11349;53.412;-1.328;2023-12-20T12:25:36;9.00;;;1.40;;
22363;SDS011;11349;53.412;-1.328;2023-12-20T12:28:02;9.02;;;2.13;;
22363;SDS011;11349;53.412;-1.328;2023-12-20T12:30:28;6.35;;;1.40;;
22363;SDS011;11349;53.412;-1.328;2023-12-20T12:32:56;6.43;;;1.33;;
22363;SDS011;11349;53.412;-1.328;2023-12-20T12:35:25;7.88;;;1.80;;
22363;SDS011;11349;53.412;-1.328;2023-12-20T12:37:51;9.20;;;2.28;;
22363;SDS011;11349;53.412;-1.328;2023-12-20T12:40:17;10.07;;;2.00;;
22363;SDS011;11349;53.412;-1.328;2023-12-20T12:42:43;9.05;;;1.60;;
22363;SDS011;11349;53.412;-1.328;2023-12-20T12:45:10;7.85;;;1.45;;
22363;SDS011;11349;53.412;-1.328;2023-12-20T12:47:36;6.22;;;1.35;;
22363;SDS011;11349;53.412;-1.328;2023-12-20T12:50:03;10.57;;;1.35;;
22363;SDS011;11349;53.412;-1.328;2023-12-20T12:52:30;7.22;;;1.35;;
22363;SDS011;11349;53.412;-1.328;2023-12-20T12:54:56;5.53;;;1.25;;
22363;SDS011;11349;53.412;-1.328;2023-12-20T12:57:21;5.47;;;1.27;;
22363;SDS011;11349;53.412;-1.328;2023-12-20T12:59:47;7.28;;;1.30;;
22363;SDS011;11349;53.412;-1.328;2023-12-20T13:02:14;3.63;;;1.10;;
22363;SDS011;11349;53.412;-1.328;2023-12-20T13:04:40;3.45;;;0.73;;
22363;SDS011;11349;53.412;-1.328;2023-12-20T13:07:06;6.03;;;1.20;;
22363;SDS011;11349;53.412;-1.328;2023-12-20T13:09:37;4.72;;;1.02;;
22363;SDS011;11349;53.412;-1.328;2023-12-20T13:12:04;5.28;;;1.17;;
22363;SDS011;11349;53.412;-1.328;2023-12-20T13:14:34;7.03;;;1.80;;
22363;SDS011;11349;53.412;-1.328;2023-12-20T13:17:02;7.88;;;1.55;;
22363;SDS011;11349;53.412;-1.328;2023-12-20T13:19:28;7.65;;;1.50;;
22363;SDS011;11349;53.412;-1.328;2023-12-20T13:21:55;7.28;;;1.00;;
22363;SDS011;11349;53.412;-1.328;2023-12-20T13:24:21;7.57;;;1.10;;
22363;SDS011;11349;53.412;-1.328;2023-12-20T13:26:46;5.55;;;1.00;;
22363;SDS011;11349;53.412;-1.328;2023-12-20T13:29:12;4.32;;;0.70;;
22363;SDS011;11349;53.412;-1.328;2023-12-20T13:31:38;4.75;;;1.02;;
22363;SDS011;11349;53.412;-1.328;2023-12-20T13:34:05;3.38;;;0.80;;
22363;SDS011;11349;53.412;-1.328;2023-12-20T13:36:31;3.78;;;0.75;;
22363;SDS011;11349;53.412;-1.328;2023-12-20T13:38:57;3.38;;;0.80;;
22363;SDS011;11349;53.412;-1.328;2023-12-20T13:41:23;4.35;;;0.70;;
22363;SDS011;11349;53.412;-1.328;2023-12-20T13:43:48;3.40;;;0.80;;
22363;SDS011;11349;53.412;-1.328;2023-12-20T13:46:14;2.20;;;0.55;;
22363;SDS011;11349;53.412;-1.328;2023-12-20T13:48:40;3.05;;;0.73;;
22363;SDS011;11349;53.412;-1.328;2023-12-20T13:51:06;4.15;;;1.02;;
22363;SDS011;11349;53.412;-1.328;2023-12-20T13:53:32;4.57;;;0.90;;
22363;SDS011;11349;53.412;-1.328;2023-12-20T13:55:58;3.35;;;0.95;;
22363;SDS011;11349;53.412;-1.328;2023-12-20T13:58:25;3.58;;;1.05;;
22363;SDS011;11349;53.412;-1.328;2023-12-20T14:00:51;5.57;;;1.05;;
22363;SDS011;11349;53.412;-1.328;2023-12-20T14:03:16;5.25;;;1.10;;
22363;SDS011;11349;53.412;-1.328;2023-12-20T14:05:42;6.00;;;1.02;;
22363;SDS011;11349;53.412;-1.328;2023-12-20T14:08:08;4.95;;;0.90;;
22363;SDS011;11349;53.412;-1.328;2023-12-20T14:10:35;4.22;;;1.38;;
22363;SDS011;11349;53.412;-1.328;2023-12-20T14:13:00;2.22;;;0.93;;
22363;SDS011;11349;53.412;-1.328;2023-12-20T14:15:26;5.78;;;1.50;;
22363;SDS011;11349;53.412;-1.328;2023-12-20T14:17:52;5.88;;;1.15;;
22363;SDS011;11349;53.412;-1.328;2023-12-20T14:20:18;3.47;;;1.17;;
22363;SDS011;11349;53.412;-1.328;2023-12-20T14:22:43;5.65;;;0.85;;
22363;SDS011;11349;53.412;-1.328;2023-12-20T14:25:13;3.03;;;0.80;;
22363;SDS011;11349;53.412;-1.328;2023-12-20T14:27:39;2.67;;;0.80;;
22363;SDS011;11349;53.412;-1.328;2023-12-20T14:30:08;3.97;;;1.05;;